Milford, UT

10:57 AM MDT on June 25, 2017 (GMT -0600)
Milford Municipal | | Change Station
Active Advisory: Fire Weather Warning

Elev 5039 ft 38.43 °N, 113.01 °W | Updated 5 minutes ago

Clear
Clear
84 °F
Feels Like 84 °F
N
12
Wind Variable Wind from North

Today
High -- | Low -- °F
--% Chance of Precip.
Yesterday
High -- | Low -- °F
Precip. -- in
Pressure 30.01 in
Visibility 10.0 miles
Clouds Clear
Dew Point 22 °F
Humidity 10%
Rainfall 0.00 in
Snow Depth Not available.
6:09 AM 8:59 PM
Waxing Crescent, 4% visible
METAR KMLF 251652Z AUTO 36010KT 10SM CLR 29/M06 A3022 RMK AO2 SLP162 T02891056
Pressure 30.01 in
Visibility 10.0 miles
Clouds Clear
Dew Point 22 °F
Humidity 10%
Rainfall 0.00 in
Snow Depth Not available.
6:09 AM 8:59 PM
Waxing Crescent, 4% visible
METAR KMLF 251652Z AUTO 36010KT 10SM CLR 29/M06 A3022 RMK AO2 SLP162 T02891056

Get Your Daily Forecast Email!

Thanks for signing up!

Be on the lookout for a verification email in your inbox.

You'll start receiving severe weather alerts in your inbox..

×

10-Day Weather Forecast

Almanac

Astronomy

Jun. 25, 2017 Rise Set
Actual Time
Civil Twilight
Nautical Twilight
Astronomical Twilight
Moon
Length of Visible Light
Length of Day
Tomorrow will be .
, % of the Moon is Illuminated

Today's Extremes

State Highs State Lows

Community

WunderPhotos

Category 6

Welcome to Category 6. This is the collective home for Weather Underground's featured writeups by Dr. Jeff Masters (right), Bob Henson (left), Chris Burt, and other regular contributors.

Nearby

Air Quality

  Air Quality AQ Index Pollutant
Not available.

Snow Depth

Station Depth Elevation

Earthquake Activity

City Distance Mag. Time & Date
Minimum magnitude displayed is 2.5.

Coastal Water Temperatures

Place Temperature

Stations

Nearby Weather Stations

Station Location Temp. Windchill Dew Point Humidity Wind Precip. Elev Updated Type
                   

Watches & Warnings

Fire Weather Warning
Issued: 3:17 AM MDT Jun. 25, 2017 – National Weather Service

... Red flag warning remains in effect from noon to 10 PM MDT
Monday for wind and low relative humidity for fire weather zones
493 and 496...

* affected area... fire weather zone 493 central Utah mountains
and fire weather zone 496 color country mountains.

* Winds... southwest 10 to 25 mph with gusts up to 35 mph,
especially over ridges and around the western slopes of the
Tushar Mountains and Pahvant Range.

* Relative humidity... afternoon minimums of 10-15%, especially
in mid slopes and valleys.

* Impacts... gusty winds and low humidities will combine to cause
critical fire weather conditions Monday afternoon.

Precautionary/preparedness actions...

A red flag warning means that critical fire weather conditions
are either occurring now, or are imminent. A combination of
strong winds, low relative humidity, and warm temperatures can
contribute to extreme fire behavior.